Time;durP1;ratioP1;P1;durP2;ratioP2;P2;SDS_P1;SDS_P2;PMS_P1;PMS_P2;Temp;Humidity;BMP_temperature;BMP_pressure;BME280_temperature;BME280_humidity;BME280_pressure;Samples;Min_cycle;Max_cycle;Signal;HPM_P1;HPM_P2
2021/11/01 00:00:27;;;;;;;10.30;9.40;;;11.90;99.90;;;;;;2656339;28;20207;-70
2021/11/01 00:01:46;;;;;;;10.80;9.70;;;11.90;99.90;;;;;;2649901;28;20269;-70
2021/11/01 00:03:06;;;;;;;10.02;9.10;;;11.90;99.90;;;;;;2649555;28;20459;-70
2021/11/01 00:04:25;;;;;;;9.45;8.65;;;12.00;99.90;;;;;;2649583;28;20684;-70
2021/11/01 00:05:46;;;;;;;10.30;9.40;;;12.00;99.90;;;;;;2649717;28;20204;-70
2021/11/01 00:07:04;;;;;;;10.15;9.25;;;12.00;99.90;;;;;;2649499;28;20200;-70
2021/11/01 00:08:23;;;;;;;12.60;11.48;;;12.00;99.90;;;;;;2655018;28;20296;-70
2021/11/01 00:09:41;;;;;;;9.52;8.73;;;12.10;99.90;;;;;;2660101;28;20608;-70
2021/11/01 00:11:00;;;;;;;10.88;9.95;;;12.10;99.90;;;;;;2660223;28;20226;-70
2021/11/01 00:12:18;;;;;;;10.15;9.35;;;12.10;99.90;;;;;;2659080;28;20206;-70
2021/11/01 00:13:37;;;;;;;9.63;8.68;;;12.10;99.90;;;;;;2658831;28;20202;-70
2021/11/01 00:14:57;;;;;;;10.43;9.52;;;12.10;99.90;;;;;;2658607;28;20206;-70
2021/11/01 00:16:16;;;;;;;7.63;7.03;;;12.20;99.90;;;;;;2659953;28;20195;-70
2021/11/01 00:17:34;;;;;;;7.88;7.18;;;12.30;99.90;;;;;;2655247;28;20216;-70
2021/11/01 00:18:55;;;;;;;8.00;7.35;;;12.30;99.90;;;;;;2658030;28;20206;-70
2021/11/01 00:20:14;;;;;;;8.15;7.55;;;12.30;99.90;;;;;;2660060;28;20262;-70
2021/11/01 00:21:32;;;;;;;7.20;6.50;;;12.40;99.90;;;;;;2659980;28;20253;-70
2021/11/01 00:22:52;;;;;;;5.60;5.20;;;12.30;99.90;;;;;;2660096;28;20622;-70
2021/11/01 00:24:09;;;;;;;6.70;6.20;;;12.40;99.90;;;;;;2659243;28;21010;-70
2021/11/01 00:25:28;;;;;;;6.00;5.50;;;12.40;99.90;;;;;;2659955;28;20284;-71
2021/11/01 00:26:46;;;;;;;6.53;5.45;;;12.60;99.90;;;;;;2660118;28;20520;-70
2021/11/01 00:28:06;;;;;;;6.17;5.73;;;12.70;99.90;;;;;;2657058;28;20704;-70
2021/11/01 00:29:24;;;;;;;5.68;5.20;;;12.70;99.90;;;;;;2649915;28;20463;-70
2021/11/01 00:30:44;;;;;;;6.40;5.83;;;12.80;99.90;;;;;;2649909;28;20210;-69
2021/11/01 00:32:02;;;;;;;6.82;6.07;;;12.80;99.90;;;;;;2649974;28;20524;-69
2021/11/01 00:33:21;;;;;;;7.40;6.80;;;12.90;99.90;;;;;;2649827;28;20305;-70
2021/11/01 00:34:41;;;;;;;8.20;7.40;;;13.00;99.90;;;;;;2653763;28;20284;-70
2021/11/01 00:36:00;;;;;;;10.35;9.52;;;12.90;99.90;;;;;;2660178;28;20221;-70
2021/11/01 00:37:19;;;;;;;6.63;6.10;;;12.90;99.90;;;;;;2659546;28;20207;-70
2021/11/01 00:38:38;;;;;;;7.72;7.13;;;12.90;99.90;;;;;;2659820;28;20641;-70
2021/11/01 00:39:58;;;;;;;8.35;7.70;;;12.80;99.90;;;;;;2660050;28;20218;-70
2021/11/01 00:41:17;;;;;;;8.25;7.55;;;12.80;99.90;;;;;;2660086;28;20285;-70
2021/11/01 00:42:36;;;;;;;9.10;8.38;;;12.90;99.90;;;;;;2654960;28;20657;-70
2021/11/01 00:43:54;;;;;;;8.98;8.20;;;12.90;99.90;;;;;;2659898;28;20206;-71
2021/11/01 00:45:13;;;;;;;10.00;9.00;;;12.90;99.90;;;;;;2660039;28;20238;-70
2021/11/01 00:46:32;;;;;;;11.40;10.40;;;13.00;99.90;;;;;;2660038;28;20923;-70
2021/11/01 00:47:51;;;;;;;10.13;9.10;;;13.10;99.90;;;;;;2660019;28;20684;-70
2021/11/01 00:49:09;;;;;;;10.85;9.85;;;13.10;99.90;;;;;;2659965;28;20214;-71
2021/11/01 00:50:28;;;;;;;11.07;10.18;;;13.00;99.90;;;;;;2656160;28;20231;-70
2021/11/01 00:51:47;;;;;;;10.80;9.70;;;13.00;99.90;;;;;;2655773;28;20221;-70
2021/11/01 00:53:06;;;;;;;10.52;9.63;;;13.00;99.90;;;;;;2659902;28;20294;-71
2021/11/01 00:54:24;;;;;;;10.05;9.15;;;13.10;99.90;;;;;;2653138;28;20770;-70
2021/11/01 00:55:49;;;;;;;10.27;9.47;;;13.00;99.90;;;;;;2653061;28;20207;-70
2021/11/01 00:57:07;;;;;;;10.25;9.45;;;13.00;99.90;;;;;;2659888;28;20882;-71
2021/11/01 00:58:28;;;;;;;9.83;9.03;;;13.00;99.90;;;;;;2659736;28;20199;-70
2021/11/01 00:59:45;;;;;;;10.30;9.40;;;12.90;99.90;;;;;;2659744;28;20512;-70
2021/11/01 01:01:06;;;;;;;9.53;8.83;;;12.90;99.90;;;;;;2660000;28;20692;-70
2021/11/01 01:02:28;;;;;;;10.52;9.63;;;12.90;99.90;;;;;;2659742;28;20489;-70
2021/11/01 01:03:47;;;;;;;9.60;8.80;;;12.90;99.90;;;;;;2659745;28;20386;-70
2021/11/01 01:05:06;;;;;;;9.50;8.70;;;12.90;99.90;;;;;;2659285;28;20298;-71
2021/11/01 01:06:25;;;;;;;9.05;8.35;;;12.80;99.90;;;;;;2659917;28;20671;-71
2021/11/01 01:07:43;;;;;;;9.70;8.85;;;12.80;99.90;;;;;;2659773;28;20227;-71
2021/11/01 01:09:03;;;;;;;8.48;7.78;;;12.80;99.90;;;;;;2651632;28;20214;-70
2021/11/01 01:10:21;;;;;;;9.00;8.30;;;12.80;99.90;;;;;;2649655;28;20686;-70
2021/11/01 01:11:39;;;;;;;9.40;8.60;;;12.80;99.90;;;;;;2649282;28;20239;-71
2021/11/01 01:12:58;;;;;;;9.43;8.50;;;12.80;99.90;;;;;;2649278;28;20282;-71
2021/11/01 01:14:25;;;;;;;7.45;6.85;;;12.80;99.90;;;;;;2648619;28;20538;-70
2021/11/01 01:15:51;;;;;;;8.07;7.45;;;12.90;99.90;;;;;;2649183;28;20338;-70
2021/11/01 01:17:10;;;;;;;7.53;6.90;;;12.90;99.90;;;;;;2649397;28;20192;-70
2021/11/01 01:18:33;;;;;;;7.05;6.45;;;13.00;99.90;;;;;;2648516;28;20615;-70
2021/11/01 01:19:57;;;;;;;7.68;7.10;;;13.00;99.90;;;;;;2658204;28;20207;-70
2021/11/01 01:23:07;;;;;;;6.40;5.90;;;13.10;99.90;;;;;;2637595;28;20291;-70
2021/11/01 01:24:25;;;;;;;6.28;5.78;;;13.10;99.90;;;;;;2636199;28;20218;-70
2021/11/01 01:25:52;;;;;;;7.00;6.40;;;13.10;99.90;;;;;;2643159;28;20215;-70
2021/11/01 01:27:11;;;;;;;6.18;5.65;;;13.10;99.90;;;;;;2637407;28;20447;-70
2021/11/01 01:28:38;;;;;;;6.15;5.75;;;13.10;99.90;;;;;;2645928;28;20257;-70
2021/11/01 01:29:57;;;;;;;6.90;6.35;;;13.10;99.90;;;;;;2659727;28;20237;-70
2021/11/01 01:31:15;;;;;;;5.45;5.05;;;13.20;99.90;;;;;;2659679;28;20214;-70
2021/11/01 01:32:34;;;;;;;6.05;5.55;;;13.20;99.90;;;;;;2659457;28;20804;-70
2021/11/01 01:33:54;;;;;;;6.75;6.20;;;13.20;99.90;;;;;;2650263;28;20572;-71
2021/11/01 01:35:14;;;;;;;6.45;5.95;;;13.20;99.90;;;;;;2648600;28;20257;-70
2021/11/01 01:36:33;;;;;;;8.15;7.43;;;13.20;99.90;;;;;;2649359;28;20203;-70
2021/11/01 01:37:53;;;;;;;7.00;6.40;;;13.20;99.90;;;;;;2649298;28;20207;-70
2021/11/01 01:39:12;;;;;;;6.75;5.93;;;13.20;99.90;;;;;;2649106;28;20298;-70
2021/11/01 01:40:31;;;;;;;6.70;6.20;;;13.20;99.90;;;;;;2648958;28;20262;-70
2021/11/01 01:41:49;;;;;;;6.45;5.93;;;13.10;99.90;;;;;;2649077;28;20257;-70
2021/11/01 01:43:09;;;;;;;5.90;5.40;;;13.10;99.90;;;;;;2657944;28;20262;-70
2021/11/01 01:44:26;;;;;;;6.63;6.13;;;13.20;99.90;;;;;;2658383;28;20254;-70
2021/11/01 01:45:45;;;;;;;6.27;5.73;;;13.20;99.90;;;;;;2659462;28;20296;-70
2021/11/01 01:47:06;;;;;;;6.40;5.82;;;13.20;99.90;;;;;;2658016;28;20458;-70
2021/11/01 01:48:25;;;;;;;6.30;5.80;;;13.20;99.90;;;;;;2659417;28;20304;-70
2021/11/01 01:49:45;;;;;;;6.20;5.70;;;13.20;99.90;;;;;;2659360;28;20214;-70
2021/11/01 01:51:05;;;;;;;6.65;6.05;;;13.20;99.90;;;;;;2659595;28;20260;-70
2021/11/01 01:52:24;;;;;;;6.88;6.28;;;13.10;99.90;;;;;;2659592;28;20226;-70
2021/11/01 01:53:42;;;;;;;6.78;6.30;;;13.10;99.90;;;;;;2658646;28;20230;-70
2021/11/01 01:55:02;;;;;;;7.00;6.50;;;13.10;99.90;;;;;;2658358;28;20242;-69
2021/11/01 01:56:22;;;;;;;7.43;6.82;;;13.00;99.90;;;;;;2659310;28;20268;-70
2021/11/01 01:57:41;;;;;;;8.75;8.02;;;13.00;99.90;;;;;;2659604;28;20658;-70
2021/11/01 01:59:09;;;;;;;8.88;8.18;;;12.90;99.90;;;;;;2658968;28;20265;-70
2021/11/01 02:00:42;;;;;;;8.90;8.20;;;12.90;99.90;;;;;;2649089;28;20635;-70
2021/11/01 02:02:01;;;;;;;9.77;8.98;;;12.80;99.90;;;;;;2658677;28;20201;-70
2021/11/01 02:03:19;;;;;;;10.07;9.18;;;12.70;99.90;;;;;;2659459;28;20206;-71
2021/11/01 02:04:38;;;;;;;9.25;8.55;;;12.70;99.90;;;;;;2658373;28;20233;-71
2021/11/01 02:06:03;;;;;;;8.98;8.25;;;12.60;99.90;;;;;;2658308;28;20203;-71
2021/11/01 02:07:30;;;;;;;9.82;9.02;;;12.60;99.90;;;;;;2659552;28;20589;-71
2021/11/01 02:09:03;;;;;;;9.23;8.30;;;12.50;99.90;;;;;;2659079;28;20628;-71
2021/11/01 02:10:29;;;;;;;9.35;8.52;;;12.50;99.90;;;;;;2659070;28;20212;-71
2021/11/01 02:11:53;;;;;;;8.80;8.00;;;12.50;99.90;;;;;;2658245;28;20218;-71
2021/11/01 02:13:17;;;;;;;9.25;8.45;;;12.70;99.90;;;;;;2658974;28;20225;-70
2021/11/01 02:14:41;;;;;;;10.45;9.57;;;12.80;99.90;;;;;;2658299;28;20214;-71
2021/11/01 02:16:01;;;;;;;11.32;10.23;;;12.90;99.90;;;;;;2651530;28;20216;-70
2021/11/01 02:17:24;;;;;;;10.38;9.57;;;12.70;99.90;;;;;;2658940;28;20679;-70
2021/11/01 02:18:48;;;;;;;10.40;9.40;;;12.70;99.90;;;;;;2659522;28;20187;-70
2021/11/01 02:20:10;;;;;;;10.75;9.50;;;12.70;99.90;;;;;;2658705;28;20293;-71
2021/11/01 02:21:39;;;;;;;9.45;8.65;;;12.60;99.90;;;;;;2659259;28;20648;-71
2021/11/01 02:23:05;;;;;;;7.82;7.22;;;12.60;99.90;;;;;;2659301;28;20257;-70
2021/11/01 02:24:36;;;;;;;8.00;7.30;;;12.60;99.90;;;;;;2658725;28;20609;-70
2021/11/01 02:25:58;;;;;;;8.02;7.32;;;12.60;99.90;;;;;;2658719;28;20253;-70
2021/11/01 02:27:17;;;;;;;8.18;7.55;;;12.60;99.90;;;;;;2659394;28;20217;-70
2021/11/01 02:28:39;;;;;;;6.38;5.88;;;12.60;99.90;;;;;;2658626;28;20786;-71
2021/11/01 02:29:58;;;;;;;5.30;4.90;;;12.70;99.90;;;;;;2658324;28;20705;-71
2021/11/01 02:31:19;;;;;;;6.10;5.55;;;12.70;99.90;;;;;;2659162;28;20207;-70
2021/11/01 02:32:42;;;;;;;5.25;4.75;;;12.70;99.90;;;;;;2659071;28;20213;-70
2021/11/01 02:34:01;;;;;;;5.60;4.95;;;12.70;99.90;;;;;;2650745;28;20215;-71
2021/11/01 02:35:20;;;;;;;6.32;5.72;;;12.70;99.90;;;;;;2648396;28;20211;-70
2021/11/01 02:36:38;;;;;;;5.85;5.32;;;12.60;99.90;;;;;;2649609;28;20207;-70
2021/11/01 02:37:58;;;;;;;5.50;5.10;;;12.60;99.90;;;;;;2651067;28;20214;-70
2021/11/01 02:39:17;;;;;;;5.45;5.05;;;12.50;99.90;;;;;;2650637;28;20477;-70
2021/11/01 02:40:35;;;;;;;5.40;4.90;;;12.40;99.90;;;;;;2650629;28;20215;-70
2021/11/01 02:41:55;;;;;;;5.20;4.67;;;12.40;99.90;;;;;;2650931;28;20770;-70
2021/11/01 02:43:15;;;;;;;5.53;3.90;;;12.40;99.90;;;;;;2652360;28;20462;-70
2021/11/01 02:44:34;;;;;;;4.15;3.75;;;12.30;99.90;;;;;;2649846;28;20212;-70
2021/11/01 02:45:56;;;;;;;5.30;2.85;;;12.30;99.90;;;;;;2650697;28;20242;-69
2021/11/01 02:47:15;;;;;;;1.60;1.50;;;12.20;99.90;;;;;;2650824;28;20215;-69
2021/11/01 02:48:36;;;;;;;1.63;0.90;;;12.20;99.90;;;;;;2650663;28;20384;-70
2021/11/01 02:49:57;;;;;;;1.40;1.15;;;12.10;99.90;;;;;;2650883;28;20269;-69
2021/11/01 02:51:17;;;;;;;1.13;1.02;;;12.10;99.90;;;;;;2651251;28;20222;-69
2021/11/01 02:52:37;;;;;;;1.67;0.88;;;12.10;99.90;;;;;;2650111;28;20203;-70
2021/11/01 02:53:57;;;;;;;0.90;0.80;;;12.00;99.90;;;;;;2650219;28;20739;-70
2021/11/01 02:55:19;;;;;;;1.83;1.50;;;12.00;99.90;;;;;;2649583;28;20566;-69
2021/11/01 02:56:37;;;;;;;1.55;0.85;;;11.90;99.90;;;;;;2650386;28;20732;-70
2021/11/01 02:57:57;;;;;;;1.25;1.15;;;11.90;99.90;;;;;;2650706;28;20216;-70
2021/11/01 02:59:15;;;;;;;1.10;0.82;;;11.90;99.90;;;;;;2660693;28;20660;-70
2021/11/01 03:00:34;;;;;;;1.77;0.80;;;11.80;99.90;;;;;;2661002;28;20225;-70
2021/11/01 03:01:53;;;;;;;1.10;0.88;;;11.80;99.90;;;;;;2661154;28;20214;-70
2021/11/01 03:03:11;;;;;;;2.05;1.13;;;11.80;99.90;;;;;;2661080;28;20210;-70
2021/11/01 03:04:30;;;;;;;3.53;1.10;;;11.70;99.90;;;;;;2659969;28;20218;-70
2021/11/01 03:05:48;;;;;;;1.50;0.85;;;11.70;99.90;;;;;;2660138;28;20458;-70
2021/11/01 03:07:08;;;;;;;3.47;0.90;;;11.70;99.90;;;;;;2660196;28;20207;-69
2021/11/01 03:08:30;;;;;;;2.58;1.08;;;11.70;99.90;;;;;;2660030;28;20231;-70
2021/11/01 03:09:49;;;;;;;2.78;1.23;;;11.70;99.90;;;;;;2660597;28;20222;-70
2021/11/01 03:11:09;;;;;;;1.50;0.90;;;11.70;99.90;;;;;;2660991;28;20226;-70
2021/11/01 03:12:28;;;;;;;1.27;1.17;;;11.70;99.90;;;;;;2655734;28;20261;-70
2021/11/01 03:13:50;;;;;;;1.30;0.90;;;11.70;99.90;;;;;;2660362;28;20203;-70
2021/11/01 03:15:12;;;;;;;3.33;1.05;;;11.60;99.90;;;;;;2659953;28;20676;-70
2021/11/01 03:16:31;;;;;;;1.70;0.98;;;11.60;99.90;;;;;;2660880;28;20222;-70
2021/11/01 03:17:53;;;;;;;2.70;1.00;;;11.70;99.90;;;;;;2660805;28;20207;-69
2021/11/01 03:19:19;;;;;;;1.15;0.68;;;11.70;99.90;;;;;;2660996;28;20752;-70
2021/11/01 03:20:42;;;;;;;1.30;1.10;;;11.70;99.90;;;;;;2660034;28;20273;-70
2021/11/01 03:22:05;;;;;;;2.67;1.30;;;11.70;99.90;;;;;;2660560;28;20234;-70
2021/11/01 03:23:27;;;;;;;3.33;1.25;;;11.60;99.90;;;;;;2660850;28;20272;-70
2021/11/01 03:24:51;;;;;;;4.00;1.00;;;11.60;99.90;;;;;;2653391;28;20211;-70
2021/11/01 03:26:15;;;;;;;0.77;0.77;;;11.60;99.90;;;;;;2655719;28;20207;-69
2021/11/01 03:27:35;;;;;;;2.90;1.00;;;11.50;99.90;;;;;;2659945;28;20199;-69
2021/11/01 03:28:58;;;;;;;2.22;1.38;;;11.50;99.90;;;;;;2650206;28;20277;-69
2021/11/01 03:30:18;;;;;;;2.22;1.60;;;11.50;99.90;;;;;;2655025;28;20639;-69
2021/11/01 03:31:38;;;;;;;1.33;1.00;;;11.50;99.90;;;;;;2660931;28;20211;-70
2021/11/01 03:32:58;;;;;;;3.05;0.93;;;11.50;99.90;;;;;;2660821;28;20203;-70
2021/11/01 03:34:18;;;;;;;2.97;1.02;;;11.40;99.90;;;;;;2660626;28;20273;-70
2021/11/01 03:35:37;;;;;;;3.08;1.10;;;11.40;99.90;;;;;;2660818;28;20756;-69
2021/11/01 03:37:00;;;;;;;1.83;1.30;;;11.30;99.90;;;;;;2660645;28;20203;-69
2021/11/01 03:38:19;;;;;;;2.33;0.73;;;11.30;99.90;;;;;;2660784;28;20265;-69
2021/11/01 03:39:41;;;;;;;3.50;1.10;;;11.30;99.90;;;;;;2660739;28;20225;-69
2021/11/01 03:41:06;;;;;;;2.33;1.00;;;11.30;99.90;;;;;;2660183;28;20281;-70
2021/11/01 03:42:26;;;;;;;1.42;1.00;;;11.20;99.90;;;;;;2650412;28;20261;-70
2021/11/01 03:43:53;;;;;;;1.52;1.20;;;11.10;99.90;;;;;;2650253;28;20211;-70
2021/11/01 03:45:14;;;;;;;3.75;1.10;;;11.10;99.90;;;;;;2650166;28;20208;-71
2021/11/01 03:46:39;;;;;;;2.25;1.00;;;11.00;99.90;;;;;;2649960;28;20269;-71
2021/11/01 03:48:02;;;;;;;3.40;1.10;;;11.00;99.90;;;;;;2650179;28;20215;-71
2021/11/01 03:49:23;;;;;;;0.65;0.65;;;10.90;99.90;;;;;;2650308;28;20673;-71
2021/11/01 03:50:45;;;;;;;1.63;0.80;;;10.90;99.90;;;;;;2650367;28;20235;-71
2021/11/01 03:52:09;;;;;;;1.23;1.00;;;10.90;99.90;;;;;;2650233;28;20215;-71
2021/11/01 03:53:28;;;;;;;2.03;1.25;;;10.90;99.90;;;;;;2650149;28;20204;-71
2021/11/01 03:54:48;;;;;;;3.28;1.17;;;10.80;99.90;;;;;;2649951;28;20211;-71
2021/11/01 03:56:06;;;;;;;1.20;1.10;;;10.80;99.90;;;;;;2650267;28;20216;-70
2021/11/01 03:57:26;;;;;;;1.08;0.95;;;10.70;99.90;;;;;;2649993;28;20207;-70
2021/11/01 03:58:45;;;;;;;2.47;1.25;;;10.70;99.90;;;;;;2652423;28;20215;-71
2021/11/01 04:00:06;;;;;;;2.25;0.80;;;10.70;99.90;;;;;;2660743;28;20219;-70
2021/11/01 04:01:27;;;;;;;2.35;1.20;;;10.70;99.90;;;;;;2659520;28;20973;-71
2021/11/01 04:02:47;;;;;;;3.85;1.38;;;10.60;99.90;;;;;;2659348;28;20214;-71
2021/11/01 04:04:06;;;;;;;4.25;1.42;;;10.50;99.90;;;;;;2660122;28;20403;-72
2021/11/01 04:05:26;;;;;;;1.35;1.25;;;10.50;99.90;;;;;;2660257;28;20210;-71
2021/11/01 04:06:45;;;;;;;1.30;1.17;;;10.50;99.90;;;;;;2660333;28;20211;-72
2021/11/01 04:08:05;;;;;;;1.60;1.50;;;10.50;99.90;;;;;;2660477;28;20311;-72
2021/11/01 04:09:23;;;;;;;2.35;1.10;;;10.50;99.90;;;;;;2660012;28;20238;-71
2021/11/01 04:10:41;;;;;;;3.17;1.20;;;10.50;99.90;;;;;;2660641;28;20210;-71
2021/11/01 04:12:00;;;;;;;2.55;1.40;;;10.40;99.90;;;;;;2659529;28;20316;-71
2021/11/01 04:13:18;;;;;;;1.75;1.02;;;10.40;99.90;;;;;;2659573;28;20218;-72
2021/11/01 04:14:40;;;;;;;1.48;0.85;;;10.40;99.90;;;;;;2659593;28;20315;-72
2021/11/01 04:16:09;;;;;;;2.42;1.15;;;10.40;99.90;;;;;;2652433;28;20215;-72
2021/11/01 04:17:39;;;;;;;1.35;0.93;;;10.30;99.90;;;;;;2649909;28;20192;-71
2021/11/01 04:19:02;;;;;;;3.80;1.20;;;10.30;99.90;;;;;;2649852;28;20810;-71
2021/11/01 04:20:32;;;;;;;1.63;1.00;;;10.30;99.90;;;;;;2650173;28;20282;-72
2021/11/01 04:21:50;;;;;;;2.25;1.08;;;10.30;99.90;;;;;;2649932;28;20216;-71
2021/11/01 04:23:11;;;;;;;3.13;1.20;;;10.20;99.90;;;;;;2649845;28;20226;-72
2021/11/01 04:24:30;;;;;;;2.83;1.40;;;10.30;99.90;;;;;;2649524;28;20458;-72
2021/11/01 04:25:49;;;;;;;2.28;1.15;;;10.30;99.90;;;;;;2649623;28;20697;-71
2021/11/01 04:27:07;;;;;;;2.08;1.00;;;10.30;99.90;;;;;;2650145;28;20669;-72
2021/11/01 04:28:26;;;;;;;2.42;1.17;;;10.20;99.90;;;;;;2658818;28;20282;-72
2021/11/01 04:29:45;;;;;;;1.05;0.88;;;10.20;99.90;;;;;;2660265;28;20265;-71
2021/11/01 04:31:08;;;;;;;2.15;1.40;;;10.20;99.90;;;;;;2658193;28;20203;-71
2021/11/01 04:32:34;;;;;;;2.67;1.17;;;10.20;99.90;;;;;;2659886;28;20233;-72
2021/11/01 04:33:55;;;;;;;2.20;1.15;;;10.20;99.90;;;;;;2649406;28;20207;-72
2021/11/01 04:35:18;;;;;;;1.25;1.15;;;10.20;99.90;;;;;;2649755;28;20261;-72
2021/11/01 04:36:38;;;;;;;3.97;1.27;;;10.10;99.90;;;;;;2649793;28;20669;-72
2021/11/01 04:38:02;;;;;;;3.83;1.50;;;10.10;99.90;;;;;;2649722;28;20246;-72
2021/11/01 04:39:29;;;;;;;1.42;0.90;;;10.10;99.90;;;;;;2650019;28;20282;-71
2021/11/01 04:40:56;;;;;;;2.88;1.10;;;10.10;99.90;;;;;;2649782;28;20222;-72
2021/11/01 04:42:41;;;;;;;1.40;1.20;;;10.20;99.90;;;;;;2655757;28;20298;-71
2021/11/01 04:44:19;;;;;;;3.55;1.40;;;10.20;99.90;;;;;;2660195;28;20237;-71
2021/11/01 04:53:50;;;;;;;2.88;1.48;;;10.00;99.90;;;;;;2649726;28;20559;-71
2021/11/01 04:55:10;;;;;;;3.22;1.30;;;10.10;99.90;;;;;;2649434;28;20270;-71
2021/11/01 04:56:29;;;;;;;1.98;1.20;;;10.10;99.90;;;;;;2651497;28;20203;-71
2021/11/01 04:57:47;;;;;;;2.28;1.20;;;10.10;99.90;;;;;;2660069;28;20218;-70
2021/11/01 04:59:06;;;;;;;4.63;1.40;;;10.20;99.90;;;;;;2659913;28;20210;-71
2021/11/01 05:00:24;;;;;;;4.22;1.30;;;10.10;99.90;;;;;;2660003;28;20678;-71
2021/11/01 05:01:46;;;;;;;1.65;1.15;;;10.10;99.90;;;;;;2660231;28;20293;-71
2021/11/01 05:03:10;;;;;;;1.88;1.27;;;10.10;99.90;;;;;;2660074;28;20632;-71
2021/11/01 05:04:34;;;;;;;2.17;1.40;;;10.00;99.90;;;;;;2659783;28;20215;-71
2021/11/01 05:05:53;;;;;;;3.15;1.77;;;10.10;99.90;;;;;;2659743;28;20211;-71
2021/11/01 05:07:12;;;;;;;2.22;1.55;;;10.10;99.90;;;;;;2658922;28;20207;-71
2021/11/01 05:08:38;;;;;;;3.08;1.60;;;10.10;99.90;;;;;;2659832;28;20261;-70
2021/11/01 05:10:02;;;;;;;5.18;3.30;;;10.10;99.90;;;;;;2659761;28;20230;-70
2021/11/01 05:11:28;;;;;;;2.42;1.70;;;10.10;99.90;;;;;;2650303;28;20215;-70
2021/11/01 05:12:47;;;;;;;4.72;1.83;;;10.10;99.90;;;;;;2649496;28;20288;-70
2021/11/01 05:14:11;;;;;;;4.00;1.60;;;10.10;99.90;;;;;;2649074;28;20543;-70
2021/11/01 05:15:35;;;;;;;3.20;1.52;;;10.10;99.90;;;;;;2649441;28;20266;-70
2021/11/01 05:17:02;;;;;;;2.80;1.50;;;10.10;99.90;;;;;;2649416;28;20273;-71
2021/11/01 05:18:26;;;;;;;2.80;1.70;;;10.10;99.90;;;;;;2649355;28;20212;-70
2021/11/01 05:19:51;;;;;;;1.30;1.30;;;10.10;99.90;;;;;;2653219;28;20199;-70
2021/11/01 05:21:22;;;;;;;7.40;1.67;;;10.10;99.90;;;;;;2659844;28;20900;-70
2021/11/01 05:22:48;;;;;;;5.40;2.00;;;10.00;99.90;;;;;;2649648;28;20202;-71
2021/11/01 05:24:09;;;;;;;2.38;2.13;;;10.00;99.90;;;;;;2658341;28;20211;-70
2021/11/01 05:25:33;;;;;;;2.30;2.03;;;10.00;99.90;;;;;;2655108;28;20204;-70
2021/11/01 05:27:06;;;;;;;4.93;2.30;;;10.00;99.90;;;;;;2649232;28;20657;-70
2021/11/01 05:28:29;;;;;;;4.90;2.55;;;10.00;99.90;;;;;;2649405;28;20206;-70
2021/11/01 05:29:51;;;;;;;4.07;2.13;;;10.00;99.90;;;;;;2649296;28;20227;-70
2021/11/01 05:31:15;;;;;;;4.75;2.40;;;10.00;99.90;;;;;;2649247;28;20219;-70
2021/11/01 05:32:34;;;;;;;2.92;2.60;;;10.00;99.90;;;;;;2649284;28;20218;-70
2021/11/01 05:34:00;;;;;;;3.05;2.85;;;10.00;99.90;;;;;;2649091;28;20298;-70
2021/11/01 05:35:20;;;;;;;4.93;3.60;;;10.00;99.90;;;;;;2649183;28;20204;-70
2021/11/01 05:36:39;;;;;;;6.65;5.88;;;10.00;99.90;;;;;;2649326;28;20568;-70
2021/11/01 05:37:58;;;;;;;6.90;6.20;;;10.00;99.90;;;;;;2649599;28;20214;-70
2021/11/01 05:39:17;;;;;;;7.00;5.53;;;10.00;99.90;;;;;;2649390;28;20208;-70
2021/11/01 05:40:37;;;;;;;6.88;6.28;;;10.00;99.90;;;;;;2653513;28;20268;-70
2021/11/01 05:41:55;;;;;;;6.63;6.13;;;10.00;99.90;;;;;;2659475;28;20573;-70
2021/11/01 05:43:14;;;;;;;5.30;4.83;;;10.00;99.90;;;;;;2659715;28;20215;-70
2021/11/01 05:44:32;;;;;;;4.93;4.45;;;10.00;99.90;;;;;;2659197;28;20462;-70
2021/11/01 05:45:51;;;;;;;5.00;4.43;;;10.00;99.90;;;;;;2659242;28;20286;-70
2021/11/01 05:47:11;;;;;;;6.40;3.50;;;10.00;99.90;;;;;;2659500;28;20207;-70
2021/11/01 05:48:30;;;;;;;3.10;2.90;;;10.00;99.90;;;;;;2659457;28;20321;-70
2021/11/01 05:49:50;;;;;;;3.20;3.00;;;10.10;99.90;;;;;;2659359;28;20349;-69
2021/11/01 05:51:14;;;;;;;3.55;2.72;;;10.10;99.90;;;;;;2659394;28;20210;-70
2021/11/01 05:52:34;;;;;;;7.35;3.10;;;10.10;99.90;;;;;;2659136;28;20210;-69
2021/11/01 05:53:55;;;;;;;5.72;4.05;;;10.10;99.90;;;;;;2658573;28;20269;-69
2021/11/01 05:55:24;;;;;;;3.10;2.80;;;10.10;99.90;;;;;;2649044;28;20207;-70
2021/11/01 05:56:50;;;;;;;5.07;3.40;;;10.10;99.90;;;;;;2649181;28;20220;-69
2021/11/01 05:58:14;;;;;;;5.25;3.03;;;10.30;99.90;;;;;;2658113;28;20334;-70
2021/11/01 06:01:41;;;;;;;2.63;2.42;;;10.20;99.90;;;;;;2634100;28;20315;-69
2021/11/01 06:03:04;;;;;;;4.35;3.90;;;10.20;99.90;;;;;;2637430;28;20244;-70
2021/11/01 06:04:32;;;;;;;4.72;4.18;;;10.10;99.90;;;;;;2648421;28;20208;-69
2021/11/01 06:07:36;;;;;;;5.97;4.50;;;10.10;99.90;;;;;;2649152;28;20187;-70
2021/11/01 06:10:51;;;;;;;7.70;4.40;;;10.00;99.90;;;;;;2638228;28;20235;-69
2021/11/01 06:13:46;;;;;;;4.85;4.45;;;10.00;99.90;;;;;;2648810;28;20211;-69
2021/11/01 06:15:05;;;;;;;4.30;3.90;;;10.00;99.90;;;;;;2656502;28;20198;-69
2021/11/01 06:16:27;;;;;;;5.20;4.80;;;10.00;99.90;;;;;;2659244;28;20219;-69
2021/11/01 06:17:47;;;;;;;5.25;4.35;;;10.00;99.90;;;;;;2659453;28;20245;-69
2021/11/01 06:19:06;;;;;;;11.63;5.13;;;10.00;99.90;;;;;;2659120;28;20582;-69
2021/11/01 06:20:25;;;;;;;6.22;4.50;;;10.00;99.90;;;;;;2659363;28;20657;-69
2021/11/01 06:21:46;;;;;;;6.80;4.47;;;10.00;99.90;;;;;;2659231;28;20581;-69
2021/11/01 06:23:07;;;;;;;5.40;4.25;;;10.10;99.90;;;;;;2659241;28;20218;-69
2021/11/01 06:24:47;;;;;;;5.15;4.22;;;10.10;99.90;;;;;;2658959;28;20214;-69
2021/11/01 06:26:06;;;;;;;5.80;4.25;;;10.10;99.90;;;;;;2658768;28;20699;-69
2021/11/01 06:27:25;;;;;;;4.78;4.30;;;10.20;99.90;;;;;;2659154;28;20210;-69
2021/11/01 06:28:44;;;;;;;3.63;3.38;;;10.20;99.90;;;;;;2659037;28;20206;-69
2021/11/01 06:30:10;;;;;;;4.15;3.75;;;10.20;99.90;;;;;;2653562;28;20227;-68
2021/11/01 06:31:36;;;;;;;4.18;3.78;;;10.30;99.90;;;;;;2651825;28;20202;-68
2021/11/01 06:33:16;;;;;;;3.72;3.42;;;10.20;99.90;;;;;;2659259;28;20207;-67
2021/11/01 06:34:45;;;;;;;5.18;4.00;;;10.20;99.90;;;;;;2658990;28;20280;-67
2021/11/01 06:39:27;;;;;;;4.15;3.80;;;10.20;99.90;;;;;;2639578;28;21155;-67
2021/11/01 06:41:02;;;;;;;4.75;3.45;;;10.20;99.90;;;;;;2648810;28;20294;-67
2021/11/01 06:42:30;;;;;;;8.02;4.80;;;10.20;99.90;;;;;;2656084;28;20198;-67
2021/11/01 06:44:04;;;;;;;7.30;4.93;;;10.20;99.90;;;;;;2656907;28;20282;-67
2021/11/01 06:45:31;;;;;;;6.18;4.95;;;10.20;99.90;;;;;;2659238;28;20230;-67
2021/11/01 06:50:07;;;;;;;5.55;4.35;;;10.30;99.90;;;;;;2648720;28;20231;-67
2021/11/01 06:51:43;;;;;;;4.43;4.03;;;10.40;99.90;;;;;;2648819;28;20792;-67
2021/11/01 06:55:14;;;;;;;3.63;3.33;;;10.30;99.90;;;;;;2633446;28;20198;-67
2021/11/01 07:14:30;;;;;;;3.03;1.50;;;10.10;99.90;;;;;;2653447;28;20758;-67
2021/11/01 07:15:50;;;;;;;1.40;1.40;;;10.00;99.90;;;;;;2648684;28;20209;-67
2021/11/01 07:17:13;;;;;;;0.90;0.90;;;10.00;99.90;;;;;;2648577;28;20700;-67
2021/11/01 07:18:36;;;;;;;2.28;1.40;;;10.00;99.90;;;;;;2651784;28;20237;-67
2021/11/01 07:20:11;;;;;;;1.10;1.02;;;10.00;99.90;;;;;;2658915;28;20261;-67
2021/11/01 07:21:50;;;;;;;1.63;1.27;;;10.00;99.90;;;;;;2659185;28;20210;-67
2021/11/01 07:23:42;;;;;;;0.80;0.80;;;9.90;99.90;;;;;;2651325;28;20728;-68
2021/11/01 07:30:51;;;;;;;2.22;1.10;;;10.00;99.90;;;;;;2650668;28;20792;-67
2021/11/01 08:20:59;;;;;;;1.25;1.25;;;10.10;99.90;;;;;;2652620;28;20203;-67
2021/11/01 08:24:27;;;;;;;1.30;1.30;;;9.90;99.90;;;;;;2653448;28;20195;-67
2021/11/01 08:26:04;;;;;;;2.08;1.83;;;10.00;99.90;;;;;;2652203;28;20204;-67
2021/11/01 08:27:51;;;;;;;2.83;1.67;;;10.00;99.90;;;;;;2659829;28;20203;-67
2021/11/01 08:36:02;;;;;;;2.58;2.40;;;10.20;99.90;;;;;;2657505;28;20727;-67
2021/11/01 08:45:52;;;;;;;2.65;2.45;;;10.20;99.90;;;;;;2627397;28;20345;-67
2021/11/01 08:47:34;;;;;;;1.75;1.65;;;10.20;99.90;;;;;;2654524;28;20209;-67
2021/11/01 08:49:01;;;;;;;2.42;2.05;;;10.20;99.90;;;;;;2653247;28;20217;-67
2021/11/01 08:50:33;;;;;;;2.28;1.98;;;10.20;99.90;;;;;;2654207;28;20227;-67
2021/11/01 08:52:16;;;;;;;3.22;2.20;;;10.20;99.90;;;;;;2649886;28;20211;-67
2021/11/01 09:03:48;;;;;;;2.33;1.90;;;10.40;99.90;;;;;;2648665;28;20199;-67
2021/11/01 09:05:33;;;;;;;1.77;1.60;;;10.40;99.90;;;;;;2655124;28;20202;-67
2021/11/01 09:10:34;;;;;;;1.80;1.65;;;10.40;99.90;;;;;;2626247;28;20236;-67
2021/11/01 09:18:47;;;;;;;1.85;1.67;;;10.40;99.90;;;;;;2652890;28;20254;-67
2021/11/01 09:20:09;;;;;;;2.45;1.92;;;10.50;99.90;;;;;;2652990;28;20202;-67
2021/11/01 09:22:09;;;;;;;3.80;1.67;;;10.50;99.90;;;;;;2655387;28;20207;-67
2021/11/01 09:25:13;;;;;;;2.10;1.33;;;10.40;99.90;;;;;;2650087;28;20838;-67